Boca Raton, FL (33428)

8:04 AM EDT on September 01, 2014 (GMT -0400)
Boca (C6162) | Change Station
CLOSE
Current Station
Personal Weather Station
Location: Boca Raton, FL
Elevation: 12 ft
Nearby Weather Stations

Elev 12 ft 26.34 °N, 80.21 °W | Updated 6 seconds ago

Partly Cloudy
Partly Cloudy
82.6 °F
Feels Like 90 °F
N
0.0
Wind Variable Wind from North
Gusts 2.0 mph

Today
High -- | Low -- °F
--% Chance of Precip.
Yesterday
High -- | Low -- °F
Precip. -- in
7:00 AM 7:40 PM
Waxing Crescent, 40% visible
Pressure 30.08 in
Visibility 10.0 miles
Clouds Scattered Clouds 3000 ft
Heat Index 90 °F
Dew Point 76 °F
Humidity 80%
Rainfall 0.00 in
Snow Depth Not available.
UV 0.0 out of 12
Pollen 5.20 out of 12
PM2.5 Moderate
Flu Activity Not available.
METAR KFXE 011153Z 11008KT 10SM SCT030 29/24 A3007 RMK AO2 SLP184 70005 T02890244 10289 20278 53013

More Conditions Fewer Conditions

Pressure 30.08 in
Visibility 10.0 miles
Clouds Scattered Clouds 3000 ft
Heat Index 90 °F
Dew Point 76 °F
Humidity 80%
Rainfall 0.00 in
Snow Depth Not available.
UV 0.0 out of 12
Pollen 5.20 out of 12
PM2.5 Moderate
Flu Activity Not available.
METAR KFXE 011153Z 11008KT 10SM SCT030 29/24 A3007 RMK AO2 SLP184 70005 T02890244 10289 20278 53013

More Conditions Fewer Conditions

10-Day Weather Forecast

Almanac

Astronomy

Sep. 01, 2014 Rise Set
Actual Time 7:00 AM EDT 7:40 PM EDT
Civil Twilight 6:37 AM EDT 8:03 PM EDT
Nautical Twilight 6:09 AM EDT 8:31 PM EDT
Astronomical Twilight 5:41 AM EDT 8:59 PM EDT
Moon 1:07 PM EDT No Moon Set
Length of Visible Light 13h 26m
Length of Day
12h 39m
Tomorrow will be 1m 29s shorter.
Waxing Crescent, 40% of the Moon is Illuminated
Today
Waxing Crescent
Sep 2
First Quarter
Sep 8
Full
Sep 15
Last Quarter
Sep 24
New

Today's Extremes

State Highs State Lows

Community

WunderPhotos

Upload Photos

1,749,193 photos uploaded!

Nearby

Air Quality

  Air Quality AQ Index Pollutant
Yesterday Moderate
PM2.5
Yesterday Good
OZONE
Current Moderate
PM2.5
Monday Good
OZONE
Monday Good
PM2.5

Snow Depth

Station Depth Elevation
No new snow has been reported.

Earthquake Activity

City Distance Mag. Time & Date
No recent earthquake activity has been reported nearby.
Minimum magnitude displayed is 2.5.

Coastal Water Temperatures

Place Temperature
Lake Worth, FL 87.1 °F
Virginia Key, FL 86.0 °F

Nearby Weather Stations